sensor_id;sensor_type;location;lat;lon;timestamp;pressure;altitude;pressure_sealevel;temperature;humidity
20696;BME280;10507;52.754;13.040;2023-04-21T00:01:35;101360.88;;;9.34;100.00
20696;BME280;10507;52.754;13.040;2023-04-21T00:04:04;101351.31;;;9.28;100.00
20696;BME280;10507;52.754;13.040;2023-04-21T00:06:35;101361.19;;;9.25;100.00
20696;BME280;10507;52.754;13.040;2023-04-21T00:09:02;101365.66;;;9.24;100.00
20696;BME280;10507;52.754;13.040;2023-04-21T00:11:30;101369.31;;;9.22;100.00
20696;BME280;10507;52.754;13.040;2023-04-21T00:13:58;101362.13;;;9.24;100.00
20696;BME280;10507;52.754;13.040;2023-04-21T00:16:26;101352.50;;;9.20;100.00
20696;BME280;10507;52.754;13.040;2023-04-21T00:18:54;101352.69;;;9.13;100.00
20696;BME280;10507;52.754;13.040;2023-04-21T00:21:22;101359.81;;;9.13;100.00
20696;BME280;10507;52.754;13.040;2023-04-21T00:23:51;101377.44;;;9.17;100.00
20696;BME280;10507;52.754;13.040;2023-04-21T00:26:18;101366.81;;;9.15;100.00
20696;BME280;10507;52.754;13.040;2023-04-21T00:28:46;101346.41;;;9.14;100.00
20696;BME280;10507;52.754;13.040;2023-04-21T00:31:14;101382.41;;;9.28;100.00
20696;BME280;10507;52.754;13.040;2023-04-21T00:33:42;101344.38;;;9.23;100.00
20696;BME280;10507;52.754;13.040;2023-04-21T00:36:11;101342.75;;;9.19;100.00
20696;BME280;10507;52.754;13.040;2023-04-21T00:38:39;101340.84;;;9.22;100.00
20696;BME280;10507;52.754;13.040;2023-04-21T00:41:08;101348.00;;;9.22;100.00
20696;BME280;10507;52.754;13.040;2023-04-21T00:43:36;101336.50;;;9.20;100.00
20696;BME280;10507;52.754;13.040;2023-04-21T00:46:04;101326.88;;;9.15;100.00
20696;BME280;10507;52.754;13.040;2023-04-21T00:48:32;101337.53;;;9.15;100.00
20696;BME280;10507;52.754;13.040;2023-04-21T00:51:00;101325.22;;;9.11;100.00
20696;BME280;10507;52.754;13.040;2023-04-21T00:53:28;101327.19;;;9.06;100.00
20696;BME280;10507;52.754;13.040;2023-04-21T00:55:56;101320.19;;;9.02;100.00
20696;BME280;10507;52.754;13.040;2023-04-21T00:58:25;101325.72;;;8.96;100.00
20696;BME280;10507;52.754;13.040;2023-04-21T01:00:53;101328.56;;;8.90;100.00
20696;BME280;10507;52.754;13.040;2023-04-21T01:03:21;101333.09;;;8.88;100.00
20696;BME280;10507;52.754;13.040;2023-04-21T01:05:49;101321.91;;;8.77;100.00
20696;BME280;10507;52.754;13.040;2023-04-21T01:08:17;101343.31;;;8.73;100.00
20696;BME280;10507;52.754;13.040;2023-04-21T01:10:45;101349.75;;;8.66;100.00
20696;BME280;10507;52.754;13.040;2023-04-21T01:13:13;101356.03;;;8.64;100.00
20696;BME280;10507;52.754;13.040;2023-04-21T01:15:43;101354.38;;;8.60;100.00
20696;BME280;10507;52.754;13.040;2023-04-21T01:18:10;101364.16;;;8.59;100.00
20696;BME280;10507;52.754;13.040;2023-04-21T01:20:38;101366.91;;;8.56;100.00
20696;BME280;10507;52.754;13.040;2023-04-21T01:23:08;101370.50;;;8.55;100.00
20696;BME280;10507;52.754;13.040;2023-04-21T01:25:35;101367.88;;;8.53;100.00
20696;BME280;10507;52.754;13.040;2023-04-21T01:28:03;101368.69;;;8.56;100.00
20696;BME280;10507;52.754;13.040;2023-04-21T01:30:31;101360.75;;;8.54;100.00
20696;BME280;10507;52.754;13.040;2023-04-21T01:32:59;101361.56;;;8.56;100.00
20696;BME280;10507;52.754;13.040;2023-04-21T01:35:27;101358.84;;;8.59;100.00
20696;BME280;10507;52.754;13.040;2023-04-21T01:37:55;101357.84;;;8.63;100.00
20696;BME280;10507;52.754;13.040;2023-04-21T01:40:24;101336.63;;;8.60;100.00
20696;BME280;10507;52.754;13.040;2023-04-21T01:42:52;101331.22;;;8.63;100.00
20696;BME280;10507;52.754;13.040;2023-04-21T01:45:21;101319.75;;;8.61;100.00
20696;BME280;10507;52.754;13.040;2023-04-21T01:47:48;101318.84;;;8.61;100.00
20696;BME280;10507;52.754;13.040;2023-04-21T01:50:16;101304.63;;;8.62;100.00
20696;BME280;10507;52.754;13.040;2023-04-21T01:52:44;101310.63;;;8.68;100.00
20696;BME280;10507;52.754;13.040;2023-04-21T01:55:12;101297.31;;;8.68;100.00
20696;BME280;10507;52.754;13.040;2023-04-21T01:57:42;101272.69;;;8.62;100.00
20696;BME280;10507;52.754;13.040;2023-04-21T02:00:11;101267.56;;;8.56;100.00
20696;BME280;10507;52.754;13.040;2023-04-21T02:02:40;101279.88;;;8.58;100.00
20696;BME280;10507;52.754;13.040;2023-04-21T02:05:08;101273.72;;;8.58;100.00
20696;BME280;10507;52.754;13.040;2023-04-21T02:07:36;101268.50;;;8.55;100.00
20696;BME280;10507;52.754;13.040;2023-04-21T02:10:04;101275.50;;;8.57;100.00
20696;BME280;10507;52.754;13.040;2023-04-21T02:12:32;101272.88;;;8.56;100.00
20696;BME280;10507;52.754;13.040;2023-04-21T02:15:01;101265.03;;;8.51;100.00
20696;BME280;10507;52.754;13.040;2023-04-21T02:17:29;101274.78;;;8.52;100.00
20696;BME280;10507;52.754;13.040;2023-04-21T02:19:57;101266.06;;;8.47;100.00
20696;BME280;10507;52.754;13.040;2023-04-21T02:22:26;101270.56;;;8.45;100.00
20696;BME280;10507;52.754;13.040;2023-04-21T02:24:54;101262.63;;;8.43;100.00
20696;BME280;10507;52.754;13.040;2023-04-21T02:27:22;101259.25;;;8.37;100.00
20696;BME280;10507;52.754;13.040;2023-04-21T02:29:50;101260.28;;;8.32;100.00
20696;BME280;10507;52.754;13.040;2023-04-21T02:32:19;101266.63;;;8.27;100.00
20696;BME280;10507;52.754;13.040;2023-04-21T02:34:51;101274.75;;;8.22;100.00
20696;BME280;10507;52.754;13.040;2023-04-21T02:37:20;101282.81;;;8.21;100.00
20696;BME280;10507;52.754;13.040;2023-04-21T02:39:48;101301.28;;;8.25;100.00
20696;BME280;10507;52.754;13.040;2023-04-21T02:42:16;101308.34;;;8.26;100.00
20696;BME280;10507;52.754;13.040;2023-04-21T02:44:44;101288.06;;;8.22;100.00
20696;BME280;10507;52.754;13.040;2023-04-21T02:47:14;101277.56;;;8.18;100.00
20696;BME280;10507;52.754;13.040;2023-04-21T02:49:43;101263.66;;;8.08;100.00
20696;BME280;10507;52.754;13.040;2023-04-21T02:52:11;101274.44;;;8.03;100.00
20696;BME280;10507;52.754;13.040;2023-04-21T02:54:39;101280.72;;;8.01;100.00
20696;BME280;10507;52.754;13.040;2023-04-21T02:57:06;101282.50;;;8.00;100.00
20696;BME280;10507;52.754;13.040;2023-04-21T02:59:34;101286.06;;;8.01;100.00
20696;BME280;10507;52.754;13.040;2023-04-21T03:02:02;101285.16;;;8.00;100.00
20696;BME280;10507;52.754;13.040;2023-04-21T03:04:30;101292.22;;;8.01;100.00
20696;BME280;10507;52.754;13.040;2023-04-21T03:07:01;101278.09;;;7.99;100.00
20696;BME280;10507;52.754;13.040;2023-04-21T03:09:29;101277.19;;;8.00;100.00
20696;BME280;10507;52.754;13.040;2023-04-21T03:11:56;101285.00;;;8.05;100.00
20696;BME280;10507;52.754;13.040;2023-04-21T03:14:24;101250.72;;;7.96;100.00
20696;BME280;10507;52.754;13.040;2023-04-21T03:16:52;101263.97;;;7.97;100.00
20696;BME280;10507;52.754;13.040;2023-04-21T03:19:20;101264.09;;;7.94;100.00
20696;BME280;10507;52.754;13.040;2023-04-21T03:21:48;101283.53;;;7.96;100.00
20696;BME280;10507;52.754;13.040;2023-04-21T03:24:17;101273.81;;;7.94;100.00
20696;BME280;10507;52.754;13.040;2023-04-21T03:26:46;101262.28;;;7.95;100.00
20696;BME280;10507;52.754;13.040;2023-04-21T03:29:14;101246.50;;;7.88;100.00
20696;BME280;10507;52.754;13.040;2023-04-21T03:31:45;101256.38;;;7.85;100.00
20696;BME280;10507;52.754;13.040;2023-04-21T03:34:21;101248.47;;;7.82;100.00
20696;BME280;10507;52.754;13.040;2023-04-21T03:36:49;101245.88;;;7.80;100.00
20696;BME280;10507;52.754;13.040;2023-04-21T03:39:18;101234.56;;;7.74;100.00
20696;BME280;10507;52.754;13.040;2023-04-21T03:41:46;101237.16;;;7.75;100.00
20696;BME280;10507;52.754;13.040;2023-04-21T03:44:14;101245.88;;;7.80;100.00
20696;BME280;10507;52.754;13.040;2023-04-21T03:46:42;101244.13;;;7.79;100.00
20696;BME280;10507;52.754;13.040;2023-04-21T03:49:10;101238.81;;;7.79;100.00
20696;BME280;10507;52.754;13.040;2023-04-21T03:51:38;101225.78;;;7.70;100.00
20696;BME280;10507;52.754;13.040;2023-04-21T03:54:06;101236.38;;;7.72;100.00
20696;BME280;10507;52.754;13.040;2023-04-21T03:56:36;101239.06;;;7.70;100.00
20696;BME280;10507;52.754;13.040;2023-04-21T03:59:04;101235.59;;;7.68;100.00
20696;BME280;10507;52.754;13.040;2023-04-21T04:01:32;101241.69;;;7.72;100.00
20696;BME280;10507;52.754;13.040;2023-04-21T04:04:00;101239.03;;;7.72;100.00
20696;BME280;10507;52.754;13.040;2023-04-21T04:06:28;101244.28;;;7.73;100.00
20696;BME280;10507;52.754;13.040;2023-04-21T04:08:57;101244.22;;;7.76;100.00
20696;BME280;10507;52.754;13.040;2023-04-21T04:11:28;101248.56;;;7.79;99.96
20696;BME280;10507;52.754;13.040;2023-04-21T04:13:57;101236.03;;;7.82;99.69
20696;BME280;10507;52.754;13.040;2023-04-21T04:16:25;101222.00;;;7.79;100.00
20696;BME280;10507;52.754;13.040;2023-04-21T04:18:54;101221.84;;;7.83;100.00
20696;BME280;10507;52.754;13.040;2023-04-21T04:21:22;101215.72;;;7.81;99.78
20696;BME280;10507;52.754;13.040;2023-04-21T04:23:50;101238.50;;;7.90;100.00
20696;BME280;10507;52.754;13.040;2023-04-21T04:26:18;101225.97;;;7.94;99.01
20696;BME280;10507;52.754;13.040;2023-04-21T04:28:48;101224.06;;;7.99;99.47
20696;BME280;10507;52.754;13.040;2023-04-21T04:31:17;101221.28;;;8.02;98.58
20696;BME280;10507;52.754;13.040;2023-04-21T04:33:45;101203.66;;;7.99;98.56
20696;BME280;10507;52.754;13.040;2023-04-21T04:36:13;101187.69;;;7.99;98.92
20696;BME280;10507;52.754;13.040;2023-04-21T04:38:41;101196.34;;;8.06;97.52
20696;BME280;10507;52.754;13.040;2023-04-21T04:41:09;101196.09;;;8.13;97.61
20696;BME280;10507;52.754;13.040;2023-04-21T04:43:38;101192.50;;;8.16;97.30
20696;BME280;10507;52.754;13.040;2023-04-21T04:46:06;101189.56;;;8.25;96.87
20696;BME280;10507;52.754;13.040;2023-04-21T04:48:36;101181.31;;;8.33;96.87
20696;BME280;10507;52.754;13.040;2023-04-21T04:51:04;101182.72;;;8.45;96.69
20696;BME280;10507;52.754;13.040;2023-04-21T04:53:32;101231.63;;;8.69;95.60
20696;BME280;10507;52.754;13.040;2023-04-21T04:56:00;101201.47;;;8.95;94.69
20696;BME280;10507;52.754;13.040;2023-04-21T04:58:28;101207.25;;;9.33;93.55
20696;BME280;10507;52.754;13.040;2023-04-21T05:00:56;101110.63;;;9.51;91.94
20696;BME280;10507;52.754;13.040;2023-04-21T05:03:24;101078.34;;;9.81;90.63
20696;BME280;10507;52.754;13.040;2023-04-21T05:05:53;101053.97;;;10.12;89.60
20696;BME280;10507;52.754;13.040;2023-04-21T05:08:23;100982.13;;;10.30;88.52
20696;BME280;10507;52.754;13.040;2023-04-21T05:10:50;100998.38;;;10.44;87.82
20696;BME280;10507;52.754;13.040;2023-04-21T05:13:18;100962.13;;;10.59;87.02
20696;BME280;10507;52.754;13.040;2023-04-21T05:15:46;101011.94;;;10.99;86.30
20696;BME280;10507;52.754;13.040;2023-04-21T05:18:14;101059.56;;;11.48;85.23
20696;BME280;10507;52.754;13.040;2023-04-21T05:20:42;100988.06;;;12.07;83.02
20696;BME280;10507;52.754;13.040;2023-04-21T05:23:11;100904.03;;;12.27;81.10
20696;BME280;10507;52.754;13.040;2023-04-21T05:25:39;100807.81;;;12.24;80.34
20696;BME280;10507;52.754;13.040;2023-04-21T05:28:07;100717.56;;;12.10;79.37
20696;BME280;10507;52.754;13.040;2023-04-21T05:30:35;100752.00;;;12.00;80.18
20696;BME280;10507;52.754;13.040;2023-04-21T05:33:02;100748.03;;;12.07;80.47
20696;BME280;10507;52.754;13.040;2023-04-21T05:35:31;100842.41;;;12.44;80.26
20696;BME280;10507;52.754;13.040;2023-04-21T05:38:00;100844.50;;;13.19;77.62
20696;BME280;10507;52.754;13.040;2023-04-21T05:40:29;100898.81;;;13.99;75.20
20696;BME280;10507;52.754;13.040;2023-04-21T05:42:57;100878.94;;;14.74;73.17
20696;BME280;10507;52.754;13.040;2023-04-21T05:45:25;100826.41;;;15.37;71.32
20696;BME280;10507;52.754;13.040;2023-04-21T05:47:53;100639.91;;;15.88;68.90
20696;BME280;10507;52.754;13.040;2023-04-21T05:50:21;100735.63;;;16.55;67.21
20696;BME280;10507;52.754;13.040;2023-04-21T05:52:49;100816.22;;;16.71;67.28
20696;BME280;10507;52.754;13.040;2023-04-21T05:55:17;100766.25;;;17.26;66.18
20696;BME280;10507;52.754;13.040;2023-04-21T05:57:46;100511.75;;;17.25;64.37
20696;BME280;10507;52.754;13.040;2023-04-21T06:00:15;100525.38;;;17.47;64.29
20696;BME280;10507;52.754;13.040;2023-04-21T06:02:43;100589.88;;;17.95;63.12
20696;BME280;10507;52.754;13.040;2023-04-21T06:05:11;100429.59;;;18.05;61.85
20696;BME280;10507;52.754;13.040;2023-04-21T06:07:39;100422.25;;;17.64;63.58
20696;BME280;10507;52.754;13.040;2023-04-21T06:10:07;100581.75;;;18.38;62.51
20696;BME280;10507;52.754;13.040;2023-04-21T06:12:36;100648.13;;;18.75;62.42
20696;BME280;10507;52.754;13.040;2023-04-21T06:15:07;100462.63;;;18.93;60.40
20696;BME280;10507;52.754;13.040;2023-04-21T06:17:34;100393.09;;;18.84;60.90
20696;BME280;10507;52.754;13.040;2023-04-21T06:20:03;100355.84;;;18.97;59.53
20696;BME280;10507;52.754;13.040;2023-04-21T06:22:31;100483.31;;;19.44;59.08
20696;BME280;10507;52.754;13.040;2023-04-21T06:24:59;100324.84;;;19.50;58.67
20696;BME280;10507;52.754;13.040;2023-04-21T06:27:27;100221.69;;;19.34;59.19
20696;BME280;10507;52.754;13.040;2023-04-21T06:29:55;100428.22;;;19.75;59.21
20696;BME280;10507;52.754;13.040;2023-04-21T06:32:24;100371.63;;;19.81;58.31
20696;BME280;10507;52.754;13.040;2023-04-21T06:34:52;100495.56;;;20.38;57.93
20696;BME280;10507;52.754;13.040;2023-04-21T06:37:20;100309.75;;;20.33;56.19
20696;BME280;10507;52.754;13.040;2023-04-21T06:39:48;100462.59;;;20.62;57.24
20696;BME280;10507;52.754;13.040;2023-04-21T06:42:15;100353.38;;;20.40;57.48
20696;BME280;10507;52.754;13.040;2023-04-21T06:44:43;100312.13;;;20.46;57.36
20696;BME280;10507;52.754;13.040;2023-04-21T06:47:12;100206.97;;;20.12;57.33
20696;BME280;10507;52.754;13.040;2023-04-21T06:49:43;100385.34;;;20.66;57.11
20696;BME280;10507;52.754;13.040;2023-04-21T06:52:12;100128.78;;;20.35;56.37
20696;BME280;10507;52.754;13.040;2023-04-21T06:54:39;100174.53;;;20.21;57.14
20696;BME280;10507;52.754;13.040;2023-04-21T06:57:08;100230.88;;;20.54;57.25
20696;BME280;10507;52.754;13.040;2023-04-21T06:59:37;100166.81;;;20.26;58.15
20696;BME280;10507;52.754;13.040;2023-04-21T07:02:06;100160.25;;;20.46;56.76
20696;BME280;10507;52.754;13.040;2023-04-21T07:04:34;100174.72;;;20.65;56.40
20696;BME280;10507;52.754;13.040;2023-04-21T07:07:04;100363.66;;;21.11;56.78
20696;BME280;10507;52.754;13.040;2023-04-21T07:09:32;100222.97;;;21.43;54.83
20696;BME280;10507;52.754;13.040;2023-04-21T07:12:00;100205.19;;;21.30;55.89
20696;BME280;10507;52.754;13.040;2023-04-21T07:14:28;100145.50;;;21.38;54.88
20696;BME280;10507;52.754;13.040;2023-04-21T07:16:57;100081.28;;;21.29;54.28
20696;BME280;10507;52.754;13.040;2023-04-21T07:19:26;100220.00;;;21.54;54.63
20696;BME280;10507;52.754;13.040;2023-04-21T07:21:54;100094.34;;;21.26;54.63
20696;BME280;10507;52.754;13.040;2023-04-21T07:24:25;100061.44;;;21.29;54.36
20696;BME280;10507;52.754;13.040;2023-04-21T07:26:53;100126.03;;;21.43;55.21
20696;BME280;10507;52.754;13.040;2023-04-21T07:29:21;100152.34;;;21.69;54.84
20696;BME280;10507;52.754;13.040;2023-04-21T07:31:49;100141.75;;;21.92;53.79
20696;BME280;10507;52.754;13.040;2023-04-21T07:34:17;100047.16;;;21.95;53.06
20696;BME280;10507;52.754;13.040;2023-04-21T07:36:46;100276.06;;;22.25;53.77
20696;BME280;10507;52.754;13.040;2023-04-21T07:39:15;100039.84;;;21.96;53.16
20696;BME280;10507;52.754;13.040;2023-04-21T07:41:45;100100.69;;;22.03;53.41
20696;BME280;10507;52.754;13.040;2023-04-21T07:44:14;100071.63;;;21.95;53.48
20696;BME280;10507;52.754;13.040;2023-04-21T07:46:43;100074.31;;;21.87;53.90
20696;BME280;10507;52.754;13.040;2023-04-21T07:49:13;100061.44;;;21.97;53.75
20696;BME280;10507;52.754;13.040;2023-04-21T07:51:41;100132.81;;;22.08;53.93
20696;BME280;10507;52.754;13.040;2023-04-21T07:54:10;100157.53;;;21.88;55.02
20696;BME280;10507;52.754;13.040;2023-04-21T07:56:38;100090.66;;;21.95;54.16
20696;BME280;10507;52.754;13.040;2023-04-21T07:59:08;100252.50;;;22.16;55.49
20696;BME280;10507;52.754;13.040;2023-04-21T08:01:38;100163.72;;;21.98;55.33
20696;BME280;10507;52.754;13.040;2023-04-21T08:04:09;100093.34;;;21.87;54.25
20696;BME280;10507;52.754;13.040;2023-04-21T08:06:37;100092.03;;;22.08;53.79
20696;BME280;10507;52.754;13.040;2023-04-21T08:09:08;99983.53;;;21.72;54.01
20696;BME280;10507;52.754;13.040;2023-04-21T08:11:38;99892.34;;;21.10;54.31
20696;BME280;10507;52.754;13.040;2023-04-21T08:14:09;100007.78;;;20.96;56.25
20696;BME280;10507;52.754;13.040;2023-04-21T08:16:42;100024.75;;;20.72;56.56
20696;BME280;10507;52.754;13.040;2023-04-21T08:19:10;100051.88;;;20.72;56.71
20696;BME280;10507;52.754;13.040;2023-04-21T08:21:38;100102.03;;;20.68;56.73
20696;BME280;10507;52.754;13.040;2023-04-21T08:24:07;100042.41;;;20.41;56.83
20696;BME280;10507;52.754;13.040;2023-04-21T08:26:36;100140.56;;;20.44;58.48
20696;BME280;10507;52.754;13.040;2023-04-21T08:29:05;100118.41;;;20.49;58.19
20696;BME280;10507;52.754;13.040;2023-04-21T08:31:37;99901.38;;;19.97;56.91
20696;BME280;10507;52.754;13.040;2023-04-21T08:34:06;99917.94;;;19.30;59.05
20696;BME280;10507;52.754;13.040;2023-04-21T08:36:35;99979.19;;;19.31;58.97
20696;BME280;10507;52.754;13.040;2023-04-21T08:39:03;99953.09;;;19.02;58.58
20696;BME280;10507;52.754;13.040;2023-04-21T08:41:33;100018.97;;;18.83;60.26
20696;BME280;10507;52.754;13.040;2023-04-21T08:44:01;99998.31;;;18.73;59.68
20696;BME280;10507;52.754;13.040;2023-04-21T08:46:29;100117.84;;;18.76;61.74
20696;BME280;10507;52.754;13.040;2023-04-21T08:48:59;100100.06;;;18.74;60.89
20696;BME280;10507;52.754;13.040;2023-04-21T08:51:28;100152.91;;;18.78;61.05
20696;BME280;10507;52.754;13.040;2023-04-21T08:53:57;100087.53;;;18.63;60.75
20696;BME280;10507;52.754;13.040;2023-04-21T08:56:25;100106.03;;;18.67;60.54
20696;BME280;10507;52.754;13.040;2023-04-21T08:58:53;100289.47;;;19.03;62.39
20696;BME280;10507;52.754;13.040;2023-04-21T09:01:21;100148.50;;;19.06;59.82
20696;BME280;10507;52.754;13.040;2023-04-21T09:03:49;100305.88;;;19.21;62.20
20696;BME280;10507;52.754;13.040;2023-04-21T09:06:18;100077.44;;;19.04;59.53
20696;BME280;10507;52.754;13.040;2023-04-21T09:08:52;100153.75;;;18.98;60.36
20696;BME280;10507;52.754;13.040;2023-04-21T09:11:21;100139.06;;;19.10;59.55
20696;BME280;10507;52.754;13.040;2023-04-21T09:13:49;100118.28;;;19.10;59.05
20696;BME280;10507;52.754;13.040;2023-04-21T09:16:19;100125.09;;;19.15;59.26
20696;BME280;10507;52.754;13.040;2023-04-21T09:18:48;100249.19;;;19.19;61.15
20696;BME280;10507;52.754;13.040;2023-04-21T09:21:19;100209.13;;;19.32;59.88
20696;BME280;10507;52.754;13.040;2023-04-21T09:23:49;100056.78;;;19.13;58.74
20696;BME280;10507;52.754;13.040;2023-04-21T09:26:19;100239.06;;;19.31;60.46
20696;BME280;10507;52.754;13.040;2023-04-21T09:28:50;100039.34;;;19.25;57.64
20696;BME280;10507;52.754;13.040;2023-04-21T09:31:20;100010.47;;;19.16;57.68
20696;BME280;10507;52.754;13.040;2023-04-21T09:33:52;100142.75;;;19.38;58.47
20696;BME280;10507;52.754;13.040;2023-04-21T09:36:28;100210.56;;;19.46;59.45
20696;BME280;10507;52.754;13.040;2023-04-21T09:38:57;100171.47;;;19.59;58.79
20696;BME280;10507;52.754;13.040;2023-04-21T09:41:29;100205.56;;;19.71;58.94
20696;BME280;10507;52.754;13.040;2023-04-21T09:43:57;100088.09;;;19.52;57.93
20696;BME280;10507;52.754;13.040;2023-04-21T09:46:29;100138.66;;;19.62;58.18
20696;BME280;10507;52.754;13.040;2023-04-21T09:48:59;100082.50;;;19.73;56.51
20696;BME280;10507;52.754;13.040;2023-04-21T09:51:30;99946.44;;;19.52;55.50
20696;BME280;10507;52.754;13.040;2023-04-21T09:54:20;100014.38;;;19.59;56.31
20696;BME280;10507;52.754;13.040;2023-04-21T09:56:52;100034.75;;;19.63;56.24
20696;BME280;10507;52.754;13.040;2023-04-21T09:59:25;99978.09;;;19.51;55.82
20696;BME280;10507;52.754;13.040;2023-04-21T10:01:56;99972.78;;;19.60;55.08
20696;BME280;10507;52.754;13.040;2023-04-21T10:04:27;99974.22;;;19.54;55.64
20696;BME280;10507;52.754;13.040;2023-04-21T10:06:59;99995.44;;;19.59;55.79
20696;BME280;10507;52.754;13.040;2023-04-21T10:09:32;99978.28;;;19.68;55.15
20696;BME280;10507;52.754;13.040;2023-04-21T10:12:02;99926.28;;;19.64;54.34
20696;BME280;10507;52.754;13.040;2023-04-21T10:14:34;99961.78;;;19.71;54.52
20696;BME280;10507;52.754;13.040;2023-04-21T10:17:03;99987.94;;;19.80;54.62
20696;BME280;10507;52.754;13.040;2023-04-21T10:19:33;99888.47;;;19.72;53.52
20696;BME280;10507;52.754;13.040;2023-04-21T10:22:07;99940.41;;;19.86;53.78
20696;BME280;10507;52.754;13.040;2023-04-21T10:24:36;99990.66;;;19.80;54.93
20696;BME280;10507;52.754;13.040;2023-04-21T10:27:08;99868.56;;;19.82;52.60
20696;BME280;10507;52.754;13.040;2023-04-21T10:29:36;99952.09;;;19.86;53.84
20696;BME280;10507;52.754;13.040;2023-04-21T10:32:39;99870.06;;;19.76;53.22
20696;BME280;10507;52.754;13.040;2023-04-21T10:35:09;99944.38;;;19.91;53.42
20696;BME280;10507;52.754;13.040;2023-04-21T10:37:39;99859.69;;;19.71;53.19
20696;BME280;10507;52.754;13.040;2023-04-21T10:40:34;99933.44;;;19.83;53.65
20696;BME280;10507;52.754;13.040;2023-04-21T10:43:43;99816.56;;;19.78;52.62
20696;BME280;10507;52.754;13.040;2023-04-21T10:46:33;100011.31;;;19.99;54.67
20696;BME280;10507;52.754;13.040;2023-04-21T10:49:06;99901.00;;;19.91;53.65
20696;BME280;10507;52.754;13.040;2023-04-21T10:52:01;99845.44;;;19.87;52.57
20696;BME280;10507;52.754;13.040;2023-04-21T10:54:36;99984.09;;;20.01;54.96
20696;BME280;10507;52.754;13.040;2023-04-21T10:57:09;99889.84;;;19.94;53.10
20696;BME280;10507;52.754;13.040;2023-04-21T10:59:38;99934.94;;;19.96;53.99
20696;BME280;10507;52.754;13.040;2023-04-21T11:02:07;99920.72;;;20.02;53.41
20696;BME280;10507;52.754;13.040;2023-04-21T11:04:35;99831.56;;;19.90;52.41
20696;BME280;10507;52.754;13.040;2023-04-21T11:07:06;100006.00;;;20.07;54.59
20696;BME280;10507;52.754;13.040;2023-04-21T11:09:37;100009.31;;;20.19;54.45
20696;BME280;10507;52.754;13.040;2023-04-21T11:12:06;99919.19;;;20.17;53.39
20696;BME280;10507;52.754;13.040;2023-04-21T11:14:36;99949.13;;;20.15;53.46
20696;BME280;10507;52.754;13.040;2023-04-21T11:17:09;99884.28;;;20.14;52.70
20696;BME280;10507;52.754;13.040;2023-04-21T11:19:38;99860.03;;;20.12;52.34
20696;BME280;10507;52.754;13.040;2023-04-21T11:22:06;99768.72;;;20.13;50.82
20696;BME280;10507;52.754;13.040;2023-04-21T11:24:34;99846.00;;;20.17;51.74
20696;BME280;10507;52.754;13.040;2023-04-21T11:27:07;99729.03;;;20.04;50.41
20696;BME280;10507;52.754;13.040;2023-04-21T11:29:37;99815.66;;;20.13;51.20
20696;BME280;10507;52.754;13.040;2023-04-21T11:32:05;99793.28;;;20.11;51.49
20696;BME280;10507;52.754;13.040;2023-04-21T11:34:36;99672.13;;;20.04;49.83
20696;BME280;10507;52.754;13.040;2023-04-21T11:37:05;99884.16;;;20.24;52.02
20696;BME280;10507;52.754;13.040;2023-04-21T11:39:34;99794.84;;;20.22;51.28
20696;BME280;10507;52.754;13.040;2023-04-21T11:42:03;99748.56;;;20.15;50.67
20696;BME280;10507;52.754;13.040;2023-04-21T11:44:32;99752.91;;;20.00;51.36
20696;BME280;10507;52.754;13.040;2023-04-21T11:47:11;99891.81;;;20.28;52.10
20696;BME280;10507;52.754;13.040;2023-04-21T11:49:43;99886.00;;;20.41;52.13
20696;BME280;10507;52.754;13.040;2023-04-21T11:52:22;99961.91;;;20.59;53.03
20696;BME280;10507;52.754;13.040;2023-04-21T11:54:54;99882.22;;;20.60;51.52
20696;BME280;10507;52.754;13.040;2023-04-21T11:57:25;99740.75;;;20.47;50.16
20696;BME280;10507;52.754;13.040;2023-04-21T11:59:53;99702.75;;;20.30;49.88
20696;BME280;10507;52.754;13.040;2023-04-21T12:02:26;99750.69;;;20.30;51.04
20696;BME280;10507;52.754;13.040;2023-04-21T12:04:59;99881.94;;;20.45;52.10
20696;BME280;10507;52.754;13.040;2023-04-21T12:07:30;99707.81;;;20.33;49.60
20696;BME280;10507;52.754;13.040;2023-04-21T12:09:58;99665.22;;;20.18;49.61
20696;BME280;10507;52.754;13.040;2023-04-21T12:12:28;99647.22;;;20.00;49.64
20696;BME280;10507;52.754;13.040;2023-04-21T12:14:56;99642.97;;;19.98;49.52
20696;BME280;10507;52.754;13.040;2023-04-21T12:17:24;99649.06;;;20.00;49.43
20696;BME280;10507;52.754;13.040;2023-04-21T12:19:52;99671.28;;;20.03;49.65
20696;BME280;10507;52.754;13.040;2023-04-21T12:22:20;99664.47;;;19.99;49.50
20696;BME280;10507;52.754;13.040;2023-04-21T12:24:48;99726.44;;;20.20;49.85
20696;BME280;10507;52.754;13.040;2023-04-21T12:27:16;99685.97;;;20.27;49.03
20696;BME280;10507;52.754;13.040;2023-04-21T12:29:46;99683.41;;;20.25;49.23
20696;BME280;10507;52.754;13.040;2023-04-21T12:32:14;99690.91;;;20.31;48.93
20696;BME280;10507;52.754;13.040;2023-04-21T12:34:42;99612.16;;;19.99;49.31
20696;BME280;10507;52.754;13.040;2023-04-21T12:37:10;99622.31;;;19.97;49.12
20696;BME280;10507;52.754;13.040;2023-04-21T12:39:38;99611.13;;;19.91;49.38
20696;BME280;10507;52.754;13.040;2023-04-21T12:42:05;99784.00;;;20.22;50.46
20696;BME280;10507;52.754;13.040;2023-04-21T12:44:33;99669.25;;;20.05;49.53
20696;BME280;10507;52.754;13.040;2023-04-21T12:47:02;99604.19;;;19.97;48.74
20696;BME280;10507;52.754;13.040;2023-04-21T12:49:30;99630.19;;;19.82;49.46
20696;BME280;10507;52.754;13.040;2023-04-21T12:51:58;99684.91;;;19.85;50.11
20696;BME280;10507;52.754;13.040;2023-04-21T12:54:26;99575.84;;;19.49;49.82